Nearby METAR Reports

 

GCLP - Las Palmas/Gando, Spain
Distance from station: NE 26km
Updated: 13/05/2021 08:30
Mostly cloudy
Mostly cloudy
 Wind from N
Wind: N 30 km/h
Temperature: 20°C
Dew Point: 15°C
Humidity: 73%
Barometer: 1021 hPa
Clouds: Mostly cloudy
Visibility: 10 km
Cloud details: Few Clouds 762 m
Mostly cloudy 914 m
2021/05/13 08:30 GCLP 130830Z 36016KT 9999 FEW025 BKN030 20/15 Q1021 NOSIG
GCTS - Tenerife Sur/Rei, Spain
Distance from station: WNW 102km
Updated: 13/05/2021 08:30
Partly cloudy
Partly cloudy
 Wind from varies
Wind: varies 2 km/h
Temperature: 21°C
Dew Point: 14°C
Humidity: 64%
Barometer: 1022 hPa
Clouds: Partly cloudy
Visibility: 10 km
Cloud details: Partly cloudy 914 m
2021/05/13 08:30 GCTS 130830Z VRB01KT 9999 SCT030 21/14 Q1022 NOSIG
 
GCXO - Tenerife/Los Rod, Spain
Distance from station: NW 110km
Updated: 13/05/2021 08:30
Drizzle, Mostly cloudy
Drizzle, Mostly cloudy
 Wind from NW
Wind: NW 22 km/h
Temperature: 15°C
Dew Point: 15°C
Humidity: 100%
Barometer: 1024 hPa
Summary: Drizzle
Clouds: Mostly cloudy
Visibility: 8 km
Cloud details: Mostly cloudy 122 m
2021/05/13 08:30 GCXO 130830Z 32012KT 8000 3500NW DZ BKN004 15/15 Q1024 NOSIG
GCGM - La Gomera Arpt, Spain
Distance from station: W 164km
Updated: 13/05/2021 08:30
Few Clouds
Few Clouds
 Wind from varies
Wind: varies 6 km/h
Temperature: 20°C
Dew Point: 16°C
Humidity: 78%
Barometer: 1022 hPa
Clouds: Few Clouds
Visibility: 10 km
Cloud details: Few Clouds 427 m
2021/05/13 08:30 GCGM 130830Z VRB03KT 9999 FEW014 20/16 Q1022 RMK R09/VRB03KT ARP/VRB05G17KT
 
GCFV - Fuerteventura Ar, Spain
Distance from station: ENE 183km
Updated: 13/05/2021 08:30
Mostly cloudy
Mostly cloudy
 Wind from NNE
Wind: NNE 33 km/h
Temperature: 21°C
Dew Point: 15°C
Humidity: 69%
Barometer: 1020 hPa
Clouds: Mostly cloudy
Visibility: 10 km
Cloud details: Few Clouds 549 m
Mostly cloudy 701 m
2021/05/13 08:30 GCFV 130830Z 02018KT 9999 FEW018 BKN023 21/15 Q1020
GCHI - Hierro Airport, Spain
Distance from station: W 226km
Updated: 13/05/2021 08:30
Partly cloudy
Partly cloudy
 Wind from N
Wind: N 24 km/h
Temperature: 21°C
Dew Point: 15°C
Humidity: 69%
Barometer: 1023 hPa
Clouds: Partly cloudy
Visibility: 10 km
Cloud details: Few Clouds 610 m
Partly cloudy 914 m
2021/05/13 08:30 GCHI 130830Z 01013KT 330V030 9999 FEW020 SCT030 21/15 Q1023
 
GCLA - La Palma Airport, Spain
Distance from station: WNW 233km
Updated: 13/05/2021 08:30
Mostly cloudy
Mostly cloudy
 Wind from N
Wind: N 22 km/h
Temperature: 21°C
Dew Point: 16°C
Humidity: 73%
Barometer: 1023 hPa
Clouds: Mostly cloudy
Visibility: 10 km
Cloud details: Few Clouds 762 m
Mostly cloudy 1128 m
2021/05/13 08:30 GCLA 130830Z 36012KT 330V030 9999 FEW025 BKN037 21/16 Q1023
GCRR - Arrecife/Lanzaro, Spain
Distance from station: NE 234km
Updated: 13/05/2021 08:30
Mostly cloudy
Mostly cloudy
 Wind from N
Wind: N 37 km/h, Gust: 56 km/h
Temperature: 21°C
Dew Point: 14°C
Humidity: 64%
Barometer: 1020 hPa
Clouds: Mostly cloudy
Visibility: 10 km
Cloud details: Mostly cloudy 762 m
2021/05/13 08:30 GCRR 130830Z 01020G30KT 350V050 9999 BKN025 21/14 Q1020
 
LPMA - Funchal/Madeira, Portugal
Distance from station: NNW 556km
Updated: 13/05/2021 08:30
Partly cloudy
Partly cloudy
 Wind from NNE
Wind: NNE 17 km/h
Temperature: 19°C
Dew Point: 15°C
Humidity: 78%
Barometer: 1024 hPa
Clouds: Partly cloudy
Visibility: 10 km
Cloud details: Partly cloudy 396 m
2021/05/13 08:30 LPMA 130830Z 03009KT 9999 SCT013 19/15 Q1024
LPPS - Porto Santo Isla, Portugal
Distance from station: N 594km
Updated: 13/05/2021 08:30
Few Clouds
Few Clouds
 Wind from NNE
Wind: NNE 19 km/h
Temperature: 19°C
Dew Point: 14°C
Humidity: 73%
Barometer: 1025 hPa
Clouds: Few Clouds
Visibility: 10 km
Cloud details: Few Clouds 457 m
2021/05/13 08:30 LPPS 130830Z 03010KT 010V080 9999 FEW015 19/14 Q1025